Time;durP1;ratioP1;P1;durP2;ratioP2;P2;SDS_P1;SDS_P2;PMS_P1;PMS_P2;Temp;Humidity;BMP_temperature;BMP_pressure;BME280_temperature;BME280_humidity;BME280_pressure;Samples;Min_cycle;Max_cycle;Signal;HPM_P1;HPM_P2
2022/09/24 00:00:00;;;;;;;1.13;1.10;;;;;;;;;;8327682;28;20021;-57
2022/09/24 00:04:01;;;;;;;1.83;1.30;;;;;;;;;;8331623;28;20064;-58
2022/09/24 00:08:01;;;;;;;2.25;1.25;;;;;;;;;;8327980;28;20286;-57
2022/09/24 00:12:03;;;;;;;1.75;1.30;;;;;;;;;;8328716;28;20777;-58
2022/09/24 00:16:05;;;;;;;0.98;0.98;;;;;;;;;;8330096;28;20089;-57
2022/09/24 00:20:05;;;;;;;1.20;1.10;;;;;;;;;;8329365;28;20029;-57
2022/09/24 00:26:48;;;;;;;2.17;1.30;;;;;;;;;;8328248;28;20025;-57
2022/09/24 00:28:32;;;;;;;1.25;1.10;;;;;;;;;;8327301;28;20602;-58
2022/09/24 00:32:32;;;;;;;1.52;1.20;;;;;;;;;;8329238;28;20561;-58
2022/09/24 00:36:32;;;;;;;2.30;1.20;;;;;;;;;;8326966;28;20473;-57
2022/09/24 00:40:34;;;;;;;1.50;1.25;;;;;;;;;;8326361;28;20025;-57
2022/09/24 00:44:37;;;;;;;1.23;1.13;;;;;;;;;;8328720;28;20131;-62
2022/09/24 00:48:39;;;;;;;1.40;1.30;;;;;;;;;;8327831;28;20120;-57
2022/09/24 00:52:50;;;;;;;1.40;1.30;;;;;;;;;;8327689;28;20025;-57
2022/09/24 00:56:52;;;;;;;2.03;1.40;;;;;;;;;;8328456;28;20033;-57
2022/09/24 01:00:57;;;;;;;2.60;1.40;;;;;;;;;;8329451;28;20045;-58
2022/09/24 01:04:58;;;;;;;1.63;1.38;;;;;;;;;;8324856;28;20028;-58
2022/09/24 01:08:58;;;;;;;3.33;1.30;;;;;;;;;;8324897;28;20743;-57
2022/09/24 01:13:00;;;;;;;1.58;1.42;;;;;;;;;;8323638;28;20021;-57
2022/09/24 01:17:04;;;;;;;1.50;1.38;;;;;;;;;;8323454;28;20880;-59
2022/09/24 01:21:26;;;;;;;1.58;1.48;;;;;;;;;;8324964;28;20028;-57
2022/09/24 01:25:39;;;;;;;3.08;1.40;;;;;;;;;;8324811;28;20556;-57
2022/09/24 01:29:58;;;;;;;2.63;1.40;;;;;;;;;;8325116;28;20036;-56
2022/09/24 01:34:00;;;;;;;5.50;1.30;;;;;;;;;;8325705;28;20036;-57
2022/09/24 01:38:08;;;;;;;1.40;1.30;;;;;;;;;;8323117;28;20021;-57
2022/09/24 01:42:09;;;;;;;2.28;1.50;;;;;;;;;;8325701;28;20033;-58
2022/09/24 01:46:11;;;;;;;1.65;1.42;;;;;;;;;;8325080;28;20152;-57
2022/09/24 01:50:15;;;;;;;1.30;1.20;;;;;;;;;;8324416;28;20016;-57
2022/09/24 01:54:23;;;;;;;2.77;1.50;;;;;;;;;;8328235;28;20029;-57
2022/09/24 01:58:26;;;;;;;1.50;1.40;;;;;;;;;;8325742;28;20852;-57
2022/09/24 02:02:27;;;;;;;1.90;1.65;;;;;;;;;;8323870;28;20111;-57
2022/09/24 02:06:50;;;;;;;1.45;1.35;;;;;;;;;;8327738;28;20056;-57
2022/09/24 02:11:21;;;;;;;2.38;1.50;;;;;;;;;;8316373;28;20131;-57
2022/09/24 02:15:30;;;;;;;3.58;1.50;;;;;;;;;;8314127;28;20037;-57
2022/09/24 02:19:33;;;;;;;1.75;1.45;;;;;;;;;;8325244;28;20056;-57
2022/09/24 02:23:36;;;;;;;3.67;1.63;;;;;;;;;;8323330;28;20063;-57
2022/09/24 02:27:36;;;;;;;2.15;1.40;;;;;;;;;;8326986;28;20032;-57
2022/09/24 02:31:37;;;;;;;1.90;1.30;;;;;;;;;;8328029;28;20033;-57
2022/09/24 02:35:39;;;;;;;2.35;1.30;;;;;;;;;;8325557;28;20028;-57
2022/09/24 02:39:39;;;;;;;3.90;1.50;;;;;;;;;;8326065;28;20025;-56
2022/09/24 02:43:40;;;;;;;9.27;1.50;;;;;;;;;;8323582;28;20059;-57
2022/09/24 02:47:40;;;;;;;1.50;1.40;;;;;;;;;;8324847;28;20044;-57
2022/09/24 02:51:41;;;;;;;3.38;1.50;;;;;;;;;;8324318;28;21145;-57
2022/09/24 02:55:42;;;;;;;1.83;1.60;;;;;;;;;;8321576;28;20041;-57
2022/09/24 02:59:42;;;;;;;2.75;1.48;;;;;;;;;;8321881;28;20058;-57
2022/09/24 03:03:42;;;;;;;1.43;1.20;;;;;;;;;;8321304;28;20095;-57
2022/09/24 03:07:43;;;;;;;1.50;1.40;;;;;;;;;;8319895;28;20271;-57
2022/09/24 03:11:43;;;;;;;2.17;1.63;;;;;;;;;;8324497;28;20036;-57
2022/09/24 03:15:44;;;;;;;2.25;1.65;;;;;;;;;;8324585;28;20044;-57
2022/09/24 03:19:45;;;;;;;1.70;1.60;;;;;;;;;;8327744;28;20032;-57
2022/09/24 03:23:45;;;;;;;1.73;1.50;;;;;;;;;;8322044;28;20026;-60
2022/09/24 03:27:46;;;;;;;2.97;1.65;;;;;;;;;;8324065;28;20043;-57
2022/09/24 03:31:46;;;;;;;1.63;1.52;;;;;;;;;;8324320;28;20060;-57
2022/09/24 03:35:46;;;;;;;1.70;1.40;;;;;;;;;;8325307;28;20030;-56
2022/09/24 03:39:46;;;;;;;1.75;1.45;;;;;;;;;;8321087;28;20036;-57
2022/09/24 03:43:47;;;;;;;2.78;1.48;;;;;;;;;;8323401;28;20021;-57
2022/09/24 03:47:47;;;;;;;1.58;1.48;;;;;;;;;;8319746;28;20041;-57
2022/09/24 03:51:47;;;;;;;2.77;1.50;;;;;;;;;;8323577;28;20049;-57
2022/09/24 03:55:51;;;;;;;2.47;1.42;;;;;;;;;;8323154;28;20363;-57
2022/09/24 03:59:52;;;;;;;2.50;1.50;;;;;;;;;;8321956;28;20066;-57
2022/09/24 04:03:53;;;;;;;2.13;1.45;;;;;;;;;;8323548;28;20174;-57
2022/09/24 04:07:53;;;;;;;2.00;1.53;;;;;;;;;;8322991;28;20420;-57
2022/09/24 04:11:54;;;;;;;1.73;1.27;;;;;;;;;;8322187;28;20029;-58
2022/09/24 04:15:54;;;;;;;2.20;1.60;;;;;;;;;;8324517;28;20649;-57
2022/09/24 04:19:54;;;;;;;2.70;1.30;;;;;;;;;;8320618;28;20029;-56
2022/09/24 04:23:55;;;;;;;2.17;1.45;;;;;;;;;;8316193;28;20032;-57
2022/09/24 04:27:59;;;;;;;1.55;1.45;;;;;;;;;;8322393;28;20068;-57
2022/09/24 04:32:00;;;;;;;3.65;1.40;;;;;;;;;;8318792;28;20372;-57
2022/09/24 04:36:00;;;;;;;1.53;1.43;;;;;;;;;;8329435;28;20386;-56
2022/09/24 04:40:01;;;;;;;2.17;1.40;;;;;;;;;;8328000;28;20742;-57
2022/09/24 04:44:02;;;;;;;2.22;1.67;;;;;;;;;;8327172;28;20317;-57
2022/09/24 04:48:02;;;;;;;3.03;1.80;;;;;;;;;;8327780;28;20032;-57
2022/09/24 04:52:03;;;;;;;3.58;1.50;;;;;;;;;;8327209;28;20124;-57
2022/09/24 04:56:04;;;;;;;1.90;1.58;;;;;;;;;;8329859;28;20136;-57
2022/09/24 05:00:05;;;;;;;1.88;1.33;;;;;;;;;;8327345;28;20083;-57
2022/09/24 05:04:06;;;;;;;1.48;1.38;;;;;;;;;;8326779;28;20009;-57
2022/09/24 05:08:06;;;;;;;2.55;1.60;;;;;;;;;;8327922;28;20028;-57
2022/09/24 05:12:07;;;;;;;2.08;1.10;;;;;;;;;;8327670;28;20103;-57
2022/09/24 05:16:08;;;;;;;1.77;1.50;;;;;;;;;;8328552;28;20065;-57
2022/09/24 05:20:10;;;;;;;1.70;1.38;;;;;;;;;;8327802;28;20486;-57
2022/09/24 05:24:10;;;;;;;2.65;1.48;;;;;;;;;;8323275;28;20402;-57
2022/09/24 05:28:11;;;;;;;1.50;1.40;;;;;;;;;;8325806;28;20029;-57
2022/09/24 05:32:14;;;;;;;1.70;1.35;;;;;;;;;;8326710;28;20680;-57
2022/09/24 05:40:51;;;;;;;2.53;1.80;;;;;;;;;;8330947;28;20532;-59
2022/09/24 05:44:52;;;;;;;2.95;1.77;;;;;;;;;;8324896;28;20028;-58
2022/09/24 05:48:52;;;;;;;2.65;1.40;;;;;;;;;;8324659;28;20525;-57
2022/09/24 05:52:53;;;;;;;6.05;1.75;;;;;;;;;;8322379;28;20159;-58
2022/09/24 05:56:53;;;;;;;2.70;2.08;;;;;;;;;;8324490;28;20067;-57
2022/09/24 06:00:54;;;;;;;2.78;1.77;;;;;;;;;;8319290;28;20076;-57
2022/09/24 06:04:54;;;;;;;4.53;2.40;;;;;;;;;;8321295;28;20024;-57
2022/09/24 06:08:54;;;;;;;3.22;2.35;;;;;;;;;;8320786;28;20337;-57
2022/09/24 06:12:55;;;;;;;6.18;2.80;;;;;;;;;;8326025;28;20017;-57
2022/09/24 06:16:55;;;;;;;3.03;2.65;;;;;;;;;;8322467;28;20032;-57
2022/09/24 06:20:59;;;;;;;3.20;2.67;;;;;;;;;;8324586;28;20024;-57
2022/09/24 06:24:59;;;;;;;;;;;;;;;;;;8326241;28;20021;-57
2022/09/24 06:28:59;;;;;;;3.25;2.30;;;;;;;;;;8324388;28;20373;-57
2022/09/24 06:33:00;;;;;;;2.25;1.88;;;;;;;;;;8322902;28;20503;-57
2022/09/24 06:37:01;;;;;;;2.10;1.88;;;;;;;;;;8324799;28;20024;-57
2022/09/24 06:41:02;;;;;;;2.90;2.30;;;;;;;;;;8324116;28;20544;-57
2022/09/24 06:45:03;;;;;;;2.47;2.28;;;;;;;;;;8319206;28;20025;-59
2022/09/24 06:49:03;;;;;;;3.90;2.50;;;;;;;;;;8323235;28;20054;-57
2022/09/24 06:53:05;;;;;;;4.47;2.50;;;;;;;;;;8322610;28;20017;-58
2022/09/24 06:57:05;;;;;;;4.65;2.88;;;;;;;;;;8329046;28;20051;-58
2022/09/24 07:01:06;;;;;;;4.78;2.30;;;;;;;;;;8322495;28;20041;-58
2022/09/24 07:05:06;;;;;;;4.27;2.10;;;;;;;;;;8321540;28;20107;-58
2022/09/24 07:09:07;;;;;;;3.00;2.08;;;;;;;;;;8311544;28;20275;-58
2022/09/24 07:13:07;;;;;;;3.65;2.55;;;;;;;;;;8321893;28;20032;-57
2022/09/24 07:17:07;;;;;;;3.95;2.22;;;;;;;;;;8325263;28;20029;-59
2022/09/24 07:21:07;;;;;;;5.15;2.50;;;;;;;;;;8324639;28;20025;-58
2022/09/24 07:25:08;;;;;;;5.75;3.88;;;;;;;;;;8321525;28;20409;-58
2022/09/24 07:29:08;;;;;;;5.18;3.10;;;;;;;;;;8323975;28;20371;-58
2022/09/24 07:33:09;;;;;;;5.07;2.80;;;;;;;;;;8318916;28;20060;-60
2022/09/24 07:37:09;;;;;;;6.73;3.20;;;;;;;;;;8319343;28;20619;-58
2022/09/24 07:41:09;;;;;;;7.20;3.00;;;;;;;;;;8323842;28;20321;-58
2022/09/24 07:45:09;;;;;;;7.90;2.50;;;;;;;;;;8318926;28;20033;-58
2022/09/24 07:49:10;;;;;;;6.70;3.20;;;;;;;;;;8323849;28;20017;-58
2022/09/24 07:53:11;;;;;;;7.05;3.28;;;;;;;;;;8319738;28;20271;-58
2022/09/24 07:57:14;;;;;;;11.45;3.60;;;;;;;;;;8323928;28;20140;-58
2022/09/24 08:01:16;;;;;;;3.97;3.08;;;;;;;;;;8320740;28;20040;-60
2022/09/24 08:05:16;;;;;;;4.65;2.88;;;;;;;;;;8319762;28;20445;-58
2022/09/24 08:09:17;;;;;;;6.65;3.55;;;;;;;;;;8322465;28;20017;-58
2022/09/24 08:13:17;;;;;;;5.37;4.33;;;;;;;;;;8329037;28;20913;-58
2022/09/24 08:17:17;;;;;;;9.90;4.70;;;;;;;;;;8333264;28;20295;-58
2022/09/24 08:21:17;;;;;;;8.43;4.50;;;;;;;;;;8327536;28;20059;-57
2022/09/24 08:25:17;;;;;;;6.15;4.80;;;;;;;;;;8328684;28;20044;-58
2022/09/24 08:29:18;;;;;;;7.43;4.15;;;;;;;;;;8327850;28;20068;-58
2022/09/24 08:33:18;;;;;;;6.00;4.40;;;;;;;;;;8327940;28;20032;-58
2022/09/24 08:37:18;;;;;;;7.43;5.23;;;;;;;;;;8326432;28;20269;-60
2022/09/24 08:41:38;;;;;;;12.57;4.47;;;;;;;;;;8327581;28;20021;-60
2022/09/24 08:50:06;;;;;;;6.40;3.72;;;;;;;;;;8326897;28;20064;-58
2022/09/24 08:54:12;;;;;;;6.32;4.30;;;;;;;;;;8328080;28;20025;-58
2022/09/24 08:58:24;;;;;;;5.20;4.70;;;;;;;;;;8327313;28;20469;-58
2022/09/24 09:02:24;;;;;;;10.35;4.07;;;;;;;;;;8327321;28;20414;-58
2022/09/24 09:06:33;;;;;;;6.22;4.65;;;;;;;;;;8327162;28;20032;-58
2022/09/24 09:10:37;;;;;;;7.20;4.78;;;;;;;;;;8326424;28;20086;-59
2022/09/24 09:14:40;;;;;;;7.53;4.60;;;;;;;;;;8330143;28;20054;-59
2022/09/24 09:18:41;;;;;;;6.87;4.90;;;;;;;;;;8327299;28;20049;-60
2022/09/24 09:22:46;;;;;;;6.60;4.30;;;;;;;;;;8323019;28;20115;-59
2022/09/24 09:26:48;;;;;;;5.82;4.65;;;;;;;;;;8325755;28;20853;-60
2022/09/24 09:31:02;;;;;;;5.72;4.68;;;;;;;;;;8323643;28;20068;-59
2022/09/24 09:35:14;;;;;;;7.10;4.80;;;;;;;;;;8321864;28;20962;-59
2022/09/24 09:39:27;;;;;;;6.97;5.28;;;;;;;;;;8326560;28;20020;-60
2022/09/24 09:43:28;;;;;;;;;;;;;;;;;;8324182;28;20159;-59
2022/09/24 09:47:54;;;;;;;6.40;4.53;;;;;;;;;;8322493;28;19951;-59
2022/09/24 09:51:56;;;;;;;9.50;4.65;;;;;;;;;;8322920;28;20182;-60
2022/09/24 09:55:59;;;;;;;9.27;5.10;;;;;;;;;;8324160;28;20407;-59
2022/09/24 10:00:00;;;;;;;7.05;5.68;;;;;;;;;;8323918;28;20053;-58
2022/09/24 10:04:03;;;;;;;6.43;4.28;;;;;;;;;;8315260;28;20381;-58
2022/09/24 10:08:08;;;;;;;5.28;4.78;;;;;;;;;;8322675;28;20115;-60
2022/09/24 10:12:15;;;;;;;8.90;4.63;;;;;;;;;;8321332;28;20210;-59
2022/09/24 10:16:15;;;;;;;12.10;4.88;;;;;;;;;;8324092;28;20043;-60
2022/09/24 10:20:33;;;;;;;7.43;4.85;;;;;;;;;;8325410;28;20056;-58
2022/09/24 10:24:34;;;;;;;5.65;4.35;;;;;;;;;;8322638;28;20408;-58
2022/09/24 10:32:58;;;;;;;10.20;4.95;;;;;;;;;;8322743;28;20542;-60
2022/09/24 10:36:59;;;;;;;10.80;4.85;;;;;;;;;;8322331;28;20016;-60
2022/09/24 10:41:00;;;;;;;7.38;4.90;;;;;;;;;;8322062;28;20135;-58
2022/09/24 10:45:01;;;;;;;7.50;4.47;;;;;;;;;;8317295;28;20017;-58
2022/09/24 10:49:11;;;;;;;9.68;4.50;;;;;;;;;;8321223;28;20036;-58
2022/09/24 10:53:24;;;;;;;5.45;4.10;;;;;;;;;;8319443;28;20103;-59
2022/09/24 10:57:39;;;;;;;6.50;4.13;;;;;;;;;;8319373;28;20032;-58
2022/09/24 11:01:59;;;;;;;4.95;3.17;;;;;;;;;;8318096;28;20075;-60
2022/09/24 11:06:01;;;;;;;5.30;3.50;;;;;;;;;;8292775;28;20468;-59
2022/09/24 11:10:01;;;;;;;5.57;3.30;;;;;;;;;;8320940;28;20614;-59
2022/09/24 11:14:15;;;;;;;5.57;3.10;;;;;;;;;;8321026;28;20088;-60
2022/09/24 11:18:35;;;;;;;4.82;3.40;;;;;;;;;;8319401;28;20673;-60
2022/09/24 11:22:50;;;;;;;6.25;3.42;;;;;;;;;;8321706;28;20437;-59
2022/09/24 11:27:09;;;;;;;5.70;3.10;;;;;;;;;;8320981;28;20028;-60
2022/09/24 11:31:09;;;;;;;4.82;3.30;;;;;;;;;;8323731;28;20068;-60
2022/09/24 11:35:18;;;;;;;4.97;3.37;;;;;;;;;;8321074;28;20017;-60
2022/09/24 11:39:24;;;;;;;4.50;3.05;;;;;;;;;;8322287;28;20025;-60
2022/09/24 11:43:24;;;;;;;4.40;2.95;;;;;;;;;;8328725;28;20031;-59
2022/09/24 11:47:34;;;;;;;7.55;2.85;;;;;;;;;;8332971;28;20067;-59
2022/09/24 11:51:53;;;;;;;3.85;2.75;;;;;;;;;;8333572;28;20028;-60
2022/09/24 11:56:12;;;;;;;5.03;2.60;;;;;;;;;;8333952;28;20257;-59
2022/09/24 12:00:15;;;;;;;3.45;2.88;;;;;;;;;;8329663;28;20067;-60
2022/09/24 12:04:17;;;;;;;4.72;3.10;;;;;;;;;;8331800;28;20135;-59
2022/09/24 12:08:27;;;;;;;7.28;3.70;;;;;;;;;;8334399;28;20087;-58
2022/09/24 12:12:36;;;;;;;4.32;3.60;;;;;;;;;;8331241;28;20051;-59
2022/09/24 12:16:38;;;;;;;6.78;3.67;;;;;;;;;;8344283;28;20895;-59
2022/09/24 12:20:47;;;;;;;6.10;2.92;;;;;;;;;;8329041;28;20032;-59
2022/09/24 12:24:52;;;;;;;6.55;3.05;;;;;;;;;;8330418;28;20025;-60
2022/09/24 12:33:29;;;;;;;6.78;3.30;;;;;;;;;;8329998;28;20119;-59
2022/09/24 12:37:33;;;;;;;6.47;2.88;;;;;;;;;;8335048;28;20026;-58
2022/09/24 12:41:39;;;;;;;4.85;3.30;;;;;;;;;;8330042;28;20061;-58
2022/09/24 12:45:41;;;;;;;4.85;3.35;;;;;;;;;;8325469;28;20052;-58
2022/09/24 12:49:46;;;;;;;4.53;3.38;;;;;;;;;;8321921;28;20792;-60
2022/09/24 12:54:04;;;;;;;5.55;3.92;;;;;;;;;;8322151;28;20024;-60
2022/09/24 12:58:05;;;;;;;5.93;3.42;;;;;;;;;;8321288;28;20026;-59
2022/09/24 13:02:06;;;;;;;3.60;2.97;;;;;;;;;;8321706;28;20127;-59
2022/09/24 13:06:24;;;;;;;7.57;3.00;;;;;;;;;;8319911;28;20401;-59
2022/09/24 13:10:26;;;;;;;5.13;2.80;;;;;;;;;;8315850;28;20136;-59
2022/09/24 13:14:28;;;;;;;5.20;2.65;;;;;;;;;;8320071;28;20028;-59
2022/09/24 13:18:30;;;;;;;4.05;2.47;;;;;;;;;;8317934;28;20827;-58
2022/09/24 13:22:30;;;;;;;4.85;2.90;;;;;;;;;;8321033;28;20028;-59
2022/09/24 13:26:34;;;;;;;3.95;3.00;;;;;;;;;;8321770;28;20512;-59
2022/09/24 13:30:39;;;;;;;4.15;2.58;;;;;;;;;;8316766;28;20927;-60
2022/09/24 13:34:39;;;;;;;5.20;2.60;;;;;;;;;;8316551;28;20202;-62
2022/09/24 13:38:47;;;;;;;5.05;2.53;;;;;;;;;;8318477;28;20035;-58
2022/09/24 13:42:56;;;;;;;3.35;2.70;;;;;;;;;;8319082;28;20090;-60
2022/09/24 13:46:58;;;;;;;2.70;2.50;;;;;;;;;;8318008;28;20045;-59
2022/09/24 13:50:59;;;;;;;4.70;2.78;;;;;;;;;;8318960;28;20059;-59
2022/09/24 13:55:02;;;;;;;5.22;2.40;;;;;;;;;;8320559;28;20156;-59
2022/09/24 13:59:09;;;;;;;2.40;1.95;;;;;;;;;;8320510;28;20533;-59
2022/09/24 14:03:29;;;;;;;3.83;2.30;;;;;;;;;;8313743;28;20814;-59
2022/09/24 14:07:30;;;;;;;2.90;2.35;;;;;;;;;;8316151;28;20040;-60
2022/09/24 14:11:30;;;;;;;2.40;1.90;;;;;;;;;;8317074;28;20024;-58
2022/09/24 14:15:30;;;;;;;2.05;1.83;;;;;;;;;;8315268;28;20033;-58
2022/09/24 14:19:33;;;;;;;4.20;2.20;;;;;;;;;;8314822;28;20097;-58
2022/09/24 14:23:39;;;;;;;2.28;2.00;;;;;;;;;;8314783;28;20032;-59
2022/09/24 14:27:41;;;;;;;4.43;1.95;;;;;;;;;;8313313;28;20039;-58
2022/09/24 14:31:45;;;;;;;2.53;2.30;;;;;;;;;;8315245;28;20148;-58
2022/09/24 14:35:48;;;;;;;3.08;2.20;;;;;;;;;;8319127;28;20516;-60
2022/09/24 14:39:50;;;;;;;4.80;2.47;;;;;;;;;;8330669;28;20059;-59
2022/09/24 14:43:52;;;;;;;4.07;2.55;;;;;;;;;;8316910;28;20518;-59
2022/09/24 14:48:11;;;;;;;6.10;2.50;;;;;;;;;;8314730;28;20698;-58
2022/09/24 14:52:46;;;;;;;6.55;2.78;;;;;;;;;;8315857;28;20025;-58
2022/09/24 14:56:47;;;;;;;2.95;2.40;;;;;;;;;;8216590;28;20040;-57
2022/09/24 15:00:49;;;;;;;2.42;2.22;;;;;;;;;;8315741;28;20051;-58
2022/09/24 15:04:53;;;;;;;4.80;2.50;;;;;;;;;;8313095;28;20025;-59
2022/09/24 15:08:56;;;;;;;3.03;2.40;;;;;;;;;;8316889;28;20115;-59
2022/09/24 15:12:57;;;;;;;2.78;2.28;;;;;;;;;;8314956;28;20342;-58
2022/09/24 15:17:08;;;;;;;3.83;2.20;;;;;;;;;;8317316;28;20032;-59
2022/09/24 15:21:09;;;;;;;2.83;2.42;;;;;;;;;;8315975;28;20688;-58
2022/09/24 15:25:13;;;;;;;3.55;2.42;;;;;;;;;;8314576;28;20242;-58
2022/09/24 15:29:16;;;;;;;3.15;2.10;;;;;;;;;;8318016;28;20025;-59
2022/09/24 15:33:17;;;;;;;5.97;2.40;;;;;;;;;;8315445;28;20039;-59
2022/09/24 15:37:18;;;;;;;5.40;2.83;;;;;;;;;;8314092;28;20703;-58
2022/09/24 15:41:18;;;;;;;2.95;2.58;;;;;;;;;;8316820;28;20558;-58
2022/09/24 15:45:20;;;;;;;4.88;2.63;;;;;;;;;;8314873;28;20091;-59
2022/09/24 15:49:21;;;;;;;5.13;2.88;;;;;;;;;;8314243;28;20060;-60
2022/09/24 15:53:24;;;;;;;3.40;2.60;;;;;;;;;;8313022;28;20451;-58
2022/09/24 15:57:25;;;;;;;5.65;2.80;;;;;;;;;;8316980;28;20024;-57
2022/09/24 16:01:25;;;;;;;5.40;2.80;;;;;;;;;;8314840;28;20041;-59
2022/09/24 16:05:25;;;;;;;2.90;2.60;;;;;;;;;;8316378;28;20017;-58
2022/09/24 16:09:27;;;;;;;3.90;2.63;;;;;;;;;;8316437;28;20055;-58
2022/09/24 16:13:27;;;;;;;3.55;2.47;;;;;;;;;;8314225;28;20043;-58
2022/09/24 16:17:27;;;;;;;4.05;2.47;;;;;;;;;;8316053;28;20710;-58
2022/09/24 16:21:27;;;;;;;5.05;2.42;;;;;;;;;;8313295;28;20489;-57
2022/09/24 16:25:27;;;;;;;2.70;2.38;;;;;;;;;;8315748;28;20126;-58
2022/09/24 16:29:28;;;;;;;3.95;2.03;;;;;;;;;;8315035;28;20024;-60
2022/09/24 16:33:28;;;;;;;2.20;2.00;;;;;;;;;;8318664;28;20117;-59
2022/09/24 16:37:28;;;;;;;3.60;2.00;;;;;;;;;;8321681;28;20211;-59
2022/09/24 16:41:33;;;;;;;2.78;2.40;;;;;;;;;;8323185;28;20550;-58
2022/09/24 16:45:33;;;;;;;2.47;2.20;;;;;;;;;;8322106;28;20110;-58
2022/09/24 16:49:33;;;;;;;2.75;2.08;;;;;;;;;;8328512;28;21152;-59
2022/09/24 16:53:34;;;;;;;3.35;2.33;;;;;;;;;;8324748;28;20025;-59
2022/09/24 16:57:36;;;;;;;3.67;2.10;;;;;;;;;;8323400;28;20029;-58
2022/09/24 17:01:38;;;;;;;5.50;2.58;;;;;;;;;;8324133;28;20041;-59
2022/09/24 17:05:39;;;;;;;4.00;2.40;;;;;;;;;;8324739;28;20394;-58
2022/09/24 17:13:59;;;;;;;5.00;2.85;;;;;;;;;;8316632;28;20070;-58
2022/09/24 17:17:59;;;;;;;4.03;3.10;;;;;;;;;;8320569;28;20029;-58
2022/09/24 17:21:59;;;;;;;5.67;2.90;;;;;;;;;;8316107;28;20024;-59
2022/09/24 17:26:13;;;;;;;2.77;2.50;;;;;;;;;;8319631;28;20033;-59
2022/09/24 17:30:13;;;;;;;5.82;2.63;;;;;;;;;;8316437;28;20763;-59
2022/09/24 17:34:14;;;;;;;3.90;3.07;;;;;;;;;;8315624;28;20457;-58
2022/09/24 17:38:15;;;;;;;4.13;2.97;;;;;;;;;;8318135;28;20056;-58
2022/09/24 17:42:15;;;;;;;2.40;2.20;;;;;;;;;;8316548;28;20576;-58
2022/09/24 17:46:17;;;;;;;2.83;2.38;;;;;;;;;;8318458;28;20034;-59
2022/09/24 17:50:17;;;;;;;3.40;2.28;;;;;;;;;;8319566;28;20151;-59
2022/09/24 17:54:20;;;;;;;2.60;2.40;;;;;;;;;;8316626;28;20134;-59
2022/09/24 17:58:20;;;;;;;2.70;2.50;;;;;;;;;;8315719;28;20048;-59
2022/09/24 18:02:20;;;;;;;3.92;2.80;;;;;;;;;;8316718;28;20109;-59
2022/09/24 18:06:21;;;;;;;4.07;2.50;;;;;;;;;;8315820;28;20204;-59
2022/09/24 18:10:21;;;;;;;4.55;2.45;;;;;;;;;;8318332;28;20409;-59
2022/09/24 18:14:21;;;;;;;2.70;2.20;;;;;;;;;;8317632;28;20304;-58
2022/09/24 18:18:22;;;;;;;4.72;3.70;;;;;;;;;;8317708;28;20216;-58
2022/09/24 18:22:22;;;;;;;16.00;9.23;;;;;;;;;;8319371;28;20031;-58
2022/09/24 18:26:23;;;;;;;31.25;16.38;;;;;;;;;;8315450;28;20053;-57
2022/09/24 18:30:23;;;;;;;27.50;15.45;;;;;;;;;;8319585;28;20083;-58
2022/09/24 18:34:24;;;;;;;8.20;5.07;;;;;;;;;;8315761;28;20144;-57
2022/09/24 18:38:24;;;;;;;3.83;2.80;;;;;;;;;;8314726;28;20033;-57
2022/09/24 18:42:25;;;;;;;4.60;2.70;;;;;;;;;;8316764;28;20546;-58
2022/09/24 18:46:27;;;;;;;3.60;2.65;;;;;;;;;;8316318;28;20086;-57
2022/09/24 18:50:27;;;;;;;3.88;3.10;;;;;;;;;;8315936;28;20178;-57
2022/09/24 18:54:28;;;;;;;3.78;3.03;;;;;;;;;;8316704;28;20131;-59
2022/09/24 18:58:28;;;;;;;3.40;3.10;;;;;;;;;;8314329;28;21329;-58
2022/09/24 19:02:28;;;;;;;3.05;2.72;;;;;;;;;;8316066;28;20245;-57
2022/09/24 19:06:29;;;;;;;4.00;2.80;;;;;;;;;;8319641;28;20469;-58
2022/09/24 19:10:29;;;;;;;4.60;2.90;;;;;;;;;;8317120;28;20020;-57
2022/09/24 19:14:30;;;;;;;4.30;2.95;;;;;;;;;;8314606;28;20217;-57
2022/09/24 19:18:31;;;;;;;3.90;2.75;;;;;;;;;;8316260;28;20039;-58
2022/09/24 19:22:32;;;;;;;6.68;3.20;;;;;;;;;;8312470;28;20033;-57
2022/09/24 19:26:33;;;;;;;4.57;2.78;;;;;;;;;;8313473;28;20021;-57
2022/09/24 19:30:38;;;;;;;3.30;2.55;;;;;;;;;;8312821;28;20307;-58
2022/09/24 19:34:39;;;;;;;4.15;2.53;;;;;;;;;;8313487;28;20028;-58
2022/09/24 19:38:40;;;;;;;3.50;2.38;;;;;;;;;;8314483;28;20528;-58
2022/09/24 19:42:41;;;;;;;7.15;2.80;;;;;;;;;;8316179;28;20025;-59
2022/09/24 19:46:41;;;;;;;4.97;2.90;;;;;;;;;;8316886;28;20481;-58
2022/09/24 19:50:41;;;;;;;6.20;4.20;;;;;;;;;;8315050;28;20063;-58
2022/09/24 19:54:43;;;;;;;26.13;13.23;;;;;;;;;;8312986;28;20851;-59
2022/09/24 19:58:48;;;;;;;12.02;7.20;;;;;;;;;;8315844;28;20020;-59
2022/09/24 20:02:49;;;;;;;6.72;3.33;;;;;;;;;;8311453;28;20159;-58
2022/09/24 20:06:49;;;;;;;4.82;2.85;;;;;;;;;;8320780;28;20052;-59
2022/09/24 20:10:50;;;;;;;5.22;2.80;;;;;;;;;;8320880;28;20336;-58
2022/09/24 20:14:50;;;;;;;3.78;3.15;;;;;;;;;;8322555;28;20095;-58
2022/09/24 20:18:53;;;;;;;2.83;2.28;;;;;;;;;;8320115;28;20936;-58
2022/09/24 20:22:54;;;;;;;7.60;5.18;;;;;;;;;;8319282;28;20063;-59
2022/09/24 20:31:14;;;;;;;16.33;10.30;;;;;;;;;;8320561;28;20039;-58
2022/09/24 20:35:15;;;;;;;12.38;8.90;;;;;;;;;;8320115;28;20136;-58
2022/09/24 20:39:16;;;;;;;12.48;9.43;;;;;;;;;;8315728;28;20070;-59
2022/09/24 20:43:17;;;;;;;10.15;7.30;;;;;;;;;;8318805;28;20033;-58
2022/09/24 20:47:17;;;;;;;5.75;4.82;;;;;;;;;;8314015;28;20682;-58
2022/09/24 20:51:18;;;;;;;8.35;5.72;;;;;;;;;;8317695;28;20021;-59
2022/09/24 20:55:19;;;;;;;5.30;3.92;;;;;;;;;;8318650;28;20574;-59
2022/09/24 20:59:19;;;;;;;4.40;3.60;;;;;;;;;;8316550;28;20116;-59
2022/09/24 21:03:20;;;;;;;4.68;3.63;;;;;;;;;;8320147;28;20532;-58
2022/09/24 21:07:20;;;;;;;3.95;3.47;;;;;;;;;;8318587;28;20942;-59
2022/09/24 21:11:21;;;;;;;4.95;3.33;;;;;;;;;;8319657;28;20060;-59
2022/09/24 21:15:21;;;;;;;7.90;3.53;;;;;;;;;;8319576;28;20029;-59
2022/09/24 21:19:22;;;;;;;5.70;3.50;;;;;;;;;;8321890;28;20130;-59
2022/09/24 21:23:23;;;;;;;6.10;3.40;;;;;;;;;;8317954;28;20028;-59
2022/09/24 21:27:24;;;;;;;5.80;4.00;;;;;;;;;;8316614;28;20021;-59
2022/09/24 21:31:25;;;;;;;4.13;3.65;;;;;;;;;;8318397;28;20040;-59
2022/09/24 21:35:25;;;;;;;7.00;4.00;;;;;;;;;;8319810;28;20031;-59
2022/09/24 21:39:26;;;;;;;4.53;3.97;;;;;;;;;;8313954;28;20819;-59
2022/09/24 21:43:27;;;;;;;4.65;3.80;;;;;;;;;;8317653;28;20020;-59
2022/09/24 21:47:27;;;;;;;4.70;3.80;;;;;;;;;;8315641;28;20041;-59
2022/09/24 21:51:28;;;;;;;4.72;3.67;;;;;;;;;;8314985;28;21049;-58
2022/09/24 21:55:29;;;;;;;3.63;3.33;;;;;;;;;;8315835;28;20440;-59
2022/09/24 22:03:50;;;;;;;7.00;3.40;;;;;;;;;;8317116;28;20062;-58
2022/09/24 22:07:50;;;;;;;4.57;3.65;;;;;;;;;;8314890;28;20106;-58
2022/09/24 22:11:51;;;;;;;3.90;3.35;;;;;;;;;;8317800;28;20200;-58
2022/09/24 22:15:51;;;;;;;4.18;3.30;;;;;;;;;;8326911;28;20041;-58
2022/09/24 22:19:51;;;;;;;5.40;3.47;;;;;;;;;;8321176;28;20579;-59
2022/09/24 22:23:53;;;;;;;3.40;3.10;;;;;;;;;;8320254;28;20644;-60
2022/09/24 22:27:53;;;;;;;4.00;2.90;;;;;;;;;;8319796;28;20087;-58
2022/09/24 22:31:53;;;;;;;4.43;3.72;;;;;;;;;;8320068;28;20036;-59
2022/09/24 22:35:54;;;;;;;4.90;3.60;;;;;;;;;;8320697;28;20040;-59
2022/09/24 22:39:55;;;;;;;4.28;3.65;;;;;;;;;;8320043;28;20018;-58
2022/09/24 22:43:56;;;;;;;4.03;3.60;;;;;;;;;;8319962;28;20504;-62
2022/09/24 22:47:58;;;;;;;3.90;3.60;;;;;;;;;;8319082;28;20044;-59
2022/09/24 22:51:58;;;;;;;4.20;3.72;;;;;;;;;;8320379;28;20033;-60
2022/09/24 22:56:09;;;;;;;4.43;3.67;;;;;;;;;;8320736;28;20496;-59
2022/09/24 23:00:10;;;;;;;4.38;3.60;;;;;;;;;;8318425;28;20341;-59
2022/09/24 23:04:13;;;;;;;3.70;3.40;;;;;;;;;;8319657;28;20021;-59
2022/09/24 23:08:13;;;;;;;4.22;3.20;;;;;;;;;;8325232;28;20024;-59
2022/09/24 23:12:14;;;;;;;3.63;3.20;;;;;;;;;;8319722;28;20489;-59
2022/09/24 23:16:16;;;;;;;3.55;2.95;;;;;;;;;;8321745;28;20058;-59
2022/09/24 23:20:16;;;;;;;4.45;3.08;;;;;;;;;;8321344;28;20040;-59
2022/09/24 23:24:18;;;;;;;3.00;2.70;;;;;;;;;;8323117;28;20791;-60
2022/09/24 23:28:18;;;;;;;4.35;2.67;;;;;;;;;;8319278;28;20614;-59
2022/09/24 23:32:19;;;;;;;2.90;2.60;;;;;;;;;;8319094;28;20033;-59
2022/09/24 23:36:19;;;;;;;2.40;2.20;;;;;;;;;;8321336;28;20285;-59
2022/09/24 23:40:19;;;;;;;2.75;2.10;;;;;;;;;;8320933;28;20036;-59
2022/09/24 23:44:20;;;;;;;2.22;2.03;;;;;;;;;;8320745;28;20024;-60
2022/09/24 23:48:21;;;;;;;3.47;1.95;;;;;;;;;;8319286;28;20032;-59
2022/09/24 23:52:21;;;;;;;3.25;2.00;;;;;;;;;;8319850;28;20034;-59
2022/09/24 23:56:21;;;;;;;2.40;2.20;;;;;;;;;;8321936;28;20025;-58
